Terminal Aerodrome Forecast
Issued by NWS

Home | Current Version | Previous Version | Text Only | Print | Product List | Glossary On
Versions: 1 2 3 4 5 6 7 8 9 10 11 12 13 14
592
FTUS41 KILN 072343
TAFLUK
TAF
KLUK 072343Z 0800/0824 21006KT P6SM BKN150
     FM080300 22005KT P6SM BKN050 OVC120
     FM080700 24004KT P6SM SCT045 OVC100
     FM081600 26009KT P6SM -SHRA OVC045
     FM081900 27010KT 5SM -SHRA BR OVC028
     FM082200 27010KT P6SM BKN028 OVC040=

USA.gov is the U.S. government's official web portal to all federal, state and local government web resources and services.